createdAt,value
2017-12-05T00:00:37.210Z,1020.20
2017-12-05T00:01:38.630Z,1020.23
2017-12-05T00:02:40.041Z,1020.18
2017-12-05T00:03:41.455Z,1020.21
2017-12-05T00:04:42.872Z,1020.19
2017-12-05T00:05:44.281Z,1020.24
2017-12-05T00:06:45.694Z,1020.24
2017-12-05T00:07:47.111Z,1020.20
2017-12-05T00:08:48.532Z,1020.20
2017-12-05T00:09:49.946Z,1020.21
2017-12-05T00:10:51.364Z,1020.15
2017-12-05T00:11:52.768Z,1020.15
2017-12-05T00:12:54.183Z,1020.06
2017-12-05T00:13:55.590Z,1020.06
2017-12-05T00:14:56.999Z,1019.99
2017-12-05T00:15:58.421Z,1019.97
2017-12-05T00:16:59.831Z,1019.97
2017-12-05T00:18:01.243Z,1019.95
2017-12-05T00:19:02.658Z,1019.99
2017-12-05T00:20:04.074Z,1019.92
2017-12-05T00:21:05.485Z,1019.92
2017-12-05T00:22:06.905Z,1019.91
2017-12-05T00:23:08.320Z,1019.88
2017-12-05T00:24:09.740Z,1019.92
2017-12-05T00:25:11.157Z,1019.87
2017-12-05T00:26:12.573Z,1019.81
2017-12-05T00:27:13.992Z,1019.85
2017-12-05T00:28:15.477Z,1019.81
2017-12-05T00:29:16.881Z,1019.83
2017-12-05T00:30:18.302Z,1019.79
2017-12-05T00:31:19.712Z,1019.79
2017-12-05T00:32:21.125Z,1019.75
2017-12-05T00:33:22.541Z,1019.82
2017-12-05T00:34:23.962Z,1019.73
2017-12-05T00:35:25.388Z,1019.77
2017-12-05T00:36:26.795Z,1019.79
2017-12-05T00:37:28.210Z,1019.76
2017-12-05T00:38:29.627Z,1019.74
2017-12-05T00:39:31.043Z,1019.70
2017-12-05T00:40:32.462Z,1019.75
2017-12-05T00:41:33.870Z,1019.77
2017-12-05T00:42:35.404Z,1019.70
2017-12-05T00:43:36.815Z,1019.74
2017-12-05T00:44:38.220Z,1019.73
2017-12-05T00:45:39.630Z,1019.73
2017-12-05T00:46:41.055Z,1019.74
2017-12-05T00:47:42.473Z,1019.75
2017-12-05T00:48:43.991Z,1019.83
2017-12-05T00:49:45.405Z,1019.80
2017-12-05T00:50:46.822Z,1019.84
2017-12-05T00:51:48.234Z,1019.80
2017-12-05T00:52:49.660Z,1019.72
2017-12-05T00:53:51.066Z,1019.69
2017-12-05T00:54:52.469Z,1019.64
2017-12-05T00:55:53.997Z,1019.66
2017-12-05T00:56:55.418Z,1019.61
2017-12-05T00:57:56.825Z,1019.61
2017-12-05T00:58:58.251Z,1019.58
2017-12-05T00:59:59.661Z,1019.61
2017-12-05T01:01:01.072Z,1019.60
2017-12-05T01:02:02.480Z,1019.64
2017-12-05T01:03:03.894Z,1019.66
2017-12-05T01:04:05.314Z,1019.66
2017-12-05T01:05:06.730Z,1019.70
2017-12-05T01:06:08.140Z,1019.72
2017-12-05T01:07:09.556Z,1019.77
2017-12-05T01:08:10.971Z,1019.79
2017-12-05T01:09:12.382Z,1019.83
2017-12-05T01:10:13.804Z,1019.75
2017-12-05T01:11:15.209Z,1019.82
2017-12-05T01:12:16.629Z,1019.78
2017-12-05T01:13:18.036Z,1019.79
2017-12-05T01:14:19.467Z,1019.80
2017-12-05T01:15:20.892Z,1019.80
2017-12-05T01:16:22.309Z,1019.80
2017-12-05T01:17:23.720Z,1019.82
2017-12-05T01:18:25.139Z,1019.86
2017-12-05T01:19:26.569Z,1019.84
2017-12-05T01:20:27.971Z,1019.90
2017-12-05T01:21:29.389Z,1019.88
2017-12-05T01:22:30.809Z,1019.89
2017-12-05T01:23:32.228Z,1019.94
2017-12-05T01:24:33.637Z,1019.92
2017-12-05T01:25:35.049Z,1019.98
2017-12-05T01:26:36.470Z,1020.01
2017-12-05T01:27:37.894Z,1020.04
2017-12-05T01:28:39.302Z,1020.02
2017-12-05T01:29:40.717Z,1020.01
2017-12-05T01:30:42.173Z,1019.94
2017-12-05T01:31:43.580Z,1019.95
2017-12-05T01:32:44.999Z,1020.01
2017-12-05T01:33:46.410Z,1020.01
2017-12-05T01:34:47.830Z,1020.01
2017-12-05T01:35:49.243Z,1019.99
2017-12-05T01:36:50.658Z,1019.99
2017-12-05T01:37:52.096Z,1020.06
2017-12-05T01:38:53.564Z,1020.12
2017-12-05T01:39:54.928Z,1020.06
2017-12-05T01:40:56.344Z,1020.05
2017-12-05T01:41:57.747Z,1020.06
2017-12-05T01:42:59.167Z,1020.04
2017-12-05T01:44:00.632Z,1020.08
2017-12-05T01:45:02.050Z,1020.06
2017-12-05T01:46:03.451Z,1020.07
2017-12-05T01:47:04.874Z,1020.13
2017-12-05T01:48:06.280Z,1020.12
2017-12-05T01:49:07.689Z,1020.15
2017-12-05T01:50:09.103Z,1020.13
2017-12-05T01:51:10.546Z,1020.13
2017-12-05T01:52:11.923Z,1020.22
2017-12-05T01:53:13.343Z,1020.14
2017-12-05T01:54:14.752Z,1020.20
2017-12-05T01:55:16.164Z,1020.16
2017-12-05T01:56:17.581Z,1020.20
2017-12-05T01:57:18.980Z,1020.12
2017-12-05T01:58:20.424Z,1020.16
2017-12-05T01:59:21.792Z,1020.13
2017-12-05T02:00:23.204Z,1020.18
2017-12-05T02:01:24.624Z,1020.14
2017-12-05T02:02:26.042Z,1020.20
2017-12-05T02:03:27.469Z,1020.22
2017-12-05T02:04:28.882Z,1020.22
2017-12-05T02:05:30.299Z,1020.22
2017-12-05T02:06:31.716Z,1020.28
2017-12-05T02:07:33.140Z,1020.24
2017-12-05T02:08:34.553Z,1020.27
2017-12-05T02:09:35.959Z,1020.30
2017-12-05T02:10:37.375Z,1020.33
2017-12-05T02:11:38.775Z,1020.33
2017-12-05T02:12:40.197Z,1020.33
2017-12-05T02:13:41.612Z,1020.31
2017-12-05T02:14:43.024Z,1020.31
2017-12-05T02:15:44.449Z,1020.36
2017-12-05T02:16:45.856Z,1020.31
2017-12-05T02:17:47.266Z,1020.34
2017-12-05T02:18:48.682Z,1020.30
2017-12-05T02:19:50.097Z,1020.26
2017-12-05T02:20:51.510Z,1020.30
2017-12-05T02:21:52.919Z,1020.29
2017-12-05T02:22:54.332Z,1020.34
2017-12-05T02:23:55.740Z,1020.31
2017-12-05T02:24:57.154Z,1020.29
2017-12-05T02:25:58.563Z,1020.28
2017-12-05T02:26:59.974Z,1020.27
2017-12-05T02:28:01.381Z,1020.22
2017-12-05T02:29:02.798Z,1020.25
2017-12-05T02:30:04.211Z,1020.25
2017-12-05T02:31:05.637Z,1020.28
2017-12-05T02:32:07.042Z,1020.32
2017-12-05T02:33:08.444Z,1020.26
2017-12-05T02:34:09.858Z,1020.33
2017-12-05T02:35:11.274Z,1020.35
2017-12-05T02:36:12.690Z,1020.34
2017-12-05T02:37:14.132Z,1020.32
2017-12-05T02:38:15.542Z,1020.35
2017-12-05T02:39:16.954Z,1020.28
2017-12-05T02:40:18.365Z,1020.34
2017-12-05T02:41:19.774Z,1020.31
2017-12-05T02:42:22.060Z,1020.34
2017-12-05T02:43:23.501Z,1020.30
2017-12-05T02:44:24.922Z,1020.24
2017-12-05T02:45:26.338Z,1020.30
2017-12-05T02:46:27.743Z,1020.23
2017-12-05T02:47:29.153Z,1020.30
2017-12-05T02:48:30.562Z,1020.25
2017-12-05T02:49:31.977Z,1020.25
2017-12-05T02:50:33.377Z,1020.21
2017-12-05T02:51:34.790Z,1020.24
2017-12-05T02:52:36.208Z,1020.30
2017-12-05T02:53:37.627Z,1020.26
2017-12-05T02:54:39.045Z,1020.25
2017-12-05T02:55:40.446Z,1020.26
2017-12-05T02:56:41.870Z,1020.31
2017-12-05T02:57:43.270Z,1020.33
2017-12-05T02:58:44.689Z,1020.26
2017-12-05T02:59:46.100Z,1020.24
2017-12-05T03:00:47.507Z,1020.26
2017-12-05T03:01:48.918Z,1020.24
2017-12-05T03:02:50.338Z,1020.28
2017-12-05T03:03:51.750Z,1020.29
2017-12-05T03:04:53.167Z,1020.28
2017-12-05T03:05:54.581Z,1020.28
2017-12-05T03:06:55.998Z,1020.29
2017-12-05T03:07:57.413Z,1020.23
2017-12-05T03:08:58.840Z,1020.30
2017-12-05T03:10:00.262Z,1020.23
2017-12-05T03:11:01.667Z,1020.33
2017-12-05T03:12:03.077Z,1020.32
2017-12-05T03:13:04.492Z,1020.28
2017-12-05T03:14:05.899Z,1020.34
2017-12-05T03:15:07.322Z,1020.26
2017-12-05T03:16:08.732Z,1020.18
2017-12-05T03:17:10.141Z,1020.17
2017-12-05T03:18:11.550Z,1020.20
2017-12-05T03:19:12.969Z,1020.13
2017-12-05T03:20:14.376Z,1020.09
2017-12-05T03:21:15.787Z,1020.08
2017-12-05T03:22:17.200Z,1020.06
2017-12-05T03:23:18.616Z,1020.02
2017-12-05T03:24:20.032Z,1020.02
2017-12-05T03:25:21.452Z,1020.00
2017-12-05T03:26:22.858Z,1019.97
2017-12-05T03:27:24.268Z,1020.04
2017-12-05T03:28:25.685Z,1020.04
2017-12-05T03:29:27.093Z,1020.02
2017-12-05T03:30:28.504Z,1020.04
2017-12-05T03:31:29.917Z,1020.06
2017-12-05T03:32:31.336Z,1020.02
2017-12-05T03:33:32.757Z,1020.02
2017-12-05T03:34:34.165Z,1019.99
2017-12-05T03:35:35.582Z,1019.95
2017-12-05T03:36:37.003Z,1019.93
2017-12-05T03:37:38.409Z,1019.91
2017-12-05T03:38:39.821Z,1019.84
2017-12-05T03:39:41.245Z,1019.84
2017-12-05T03:40:42.656Z,1019.80
2017-12-05T03:41:44.068Z,1019.81
2017-12-05T03:42:45.484Z,1019.78
2017-12-05T03:43:46.901Z,1019.78
2017-12-05T03:44:48.312Z,1019.76
2017-12-05T03:45:49.728Z,1019.79
2017-12-05T03:46:51.139Z,1019.77
2017-12-05T03:47:52.543Z,1019.72
2017-12-05T03:48:53.954Z,1019.76
2017-12-05T03:49:55.366Z,1019.76
2017-12-05T03:50:56.778Z,1019.82
2017-12-05T03:51:58.194Z,1019.78
2017-12-05T03:52:59.598Z,1019.79
2017-12-05T03:54:01.005Z,1019.75
2017-12-05T03:55:02.415Z,1019.75
2017-12-05T03:56:03.823Z,1019.77
2017-12-05T03:57:05.242Z,1019.79
2017-12-05T03:58:06.638Z,1019.83
2017-12-05T03:59:08.056Z,1019.80
2017-12-05T04:00:09.477Z,1019.76
2017-12-05T04:01:10.898Z,1019.81
2017-12-05T04:02:12.307Z,1019.74
2017-12-05T04:03:13.715Z,1019.78
2017-12-05T04:04:15.137Z,1019.77
2017-12-05T04:05:16.554Z,1019.78
2017-12-05T04:06:17.975Z,1019.77
2017-12-05T04:07:19.548Z,1019.79
2017-12-05T04:08:20.965Z,1019.84
2017-12-05T04:09:22.380Z,1019.87
2017-12-05T04:10:23.788Z,1019.85
2017-12-05T04:11:25.197Z,1019.88
2017-12-05T04:12:26.612Z,1019.89
2017-12-05T04:13:28.022Z,1019.88
2017-12-05T04:14:29.432Z,1019.86
2017-12-05T04:15:30.841Z,1019.84
2017-12-05T04:16:32.260Z,1019.87
2017-12-05T04:17:33.675Z,1019.88
2017-12-05T04:18:35.087Z,1019.91
2017-12-05T04:19:36.508Z,1019.85
2017-12-05T04:20:37.914Z,1019.85
2017-12-05T04:21:39.336Z,1019.81
2017-12-05T04:22:40.741Z,1019.81
2017-12-05T04:23:42.158Z,1019.90
2017-12-05T04:24:43.573Z,1019.86
2017-12-05T04:25:44.999Z,1019.82
2017-12-05T04:26:46.412Z,1019.88
2017-12-05T04:27:47.926Z,1019.84
2017-12-05T04:28:49.342Z,1019.81
2017-12-05T04:29:50.755Z,1019.87
2017-12-05T04:30:52.164Z,1019.90
2017-12-05T04:31:53.577Z,1019.97
2017-12-05T04:32:54.990Z,1019.97
2017-12-05T04:33:56.399Z,1019.98
2017-12-05T04:34:57.846Z,1020.00
2017-12-05T04:35:59.265Z,1020.01
2017-12-05T04:37:00.670Z,1019.97
2017-12-05T04:38:02.083Z,1020.07
2017-12-05T04:39:03.488Z,1020.07
2017-12-05T04:40:04.941Z,1020.11
2017-12-05T04:41:06.348Z,1020.00
2017-12-05T04:42:07.762Z,1020.12
2017-12-05T04:43:09.185Z,1020.07
2017-12-05T04:44:10.593Z,1020.10
2017-12-05T04:45:11.996Z,1020.15
2017-12-05T04:46:13.412Z,1020.11
2017-12-05T04:47:14.830Z,1020.11
2017-12-05T04:48:16.236Z,1020.22
2017-12-05T04:49:17.650Z,1020.29
2017-12-05T04:50:19.060Z,1020.38
2017-12-05T04:51:20.470Z,1020.40
2017-12-05T04:52:21.882Z,1020.46
2017-12-05T04:53:23.301Z,1020.44
2017-12-05T04:54:24.706Z,1020.36
2017-12-05T04:55:26.115Z,1020.52
2017-12-05T04:56:27.539Z,1020.50
2017-12-05T04:57:28.938Z,1020.65
2017-12-05T04:58:30.350Z,1020.59
2017-12-05T04:59:31.763Z,1020.53
2017-12-05T05:00:33.176Z,1020.66
2017-12-05T05:01:34.580Z,1020.37
2017-12-05T05:02:35.991Z,1020.20
2017-12-05T05:03:37.407Z,1020.15
2017-12-05T05:04:38.817Z,1020.10
2017-12-05T05:05:40.228Z,1020.06
2017-12-05T05:06:41.642Z,1019.98
2017-12-05T05:07:43.066Z,1019.95
2017-12-05T05:08:44.474Z,1019.93
2017-12-05T05:09:45.875Z,1019.94
2017-12-05T05:10:47.301Z,1019.90
2017-12-05T05:11:48.714Z,1019.92
2017-12-05T05:12:50.120Z,1019.95
2017-12-05T05:13:51.532Z,1019.98
2017-12-05T05:14:52.945Z,1019.96
2017-12-05T05:15:54.351Z,1019.94
2017-12-05T05:16:55.766Z,1019.95
2017-12-05T05:17:57.172Z,1019.94
2017-12-05T05:18:58.585Z,1019.93
2017-12-05T05:20:00.004Z,1019.96
2017-12-05T05:21:01.412Z,1019.95
2017-12-05T05:22:02.821Z,1019.95
2017-12-05T05:23:04.235Z,1019.90
2017-12-05T05:24:05.639Z,1019.85
2017-12-05T05:25:07.048Z,1019.87
2017-12-05T05:26:08.461Z,1019.87
2017-12-05T05:27:09.865Z,1019.87
2017-12-05T05:28:11.281Z,1019.79
2017-12-05T05:29:12.690Z,1019.80
2017-12-05T05:30:14.103Z,1019.76
2017-12-05T05:31:15.510Z,1019.82
2017-12-05T05:32:16.926Z,1019.89
2017-12-05T05:33:18.363Z,1019.89
2017-12-05T05:34:19.778Z,1019.84
2017-12-05T05:35:21.181Z,1019.82
2017-12-05T05:36:22.593Z,1019.86
2017-12-05T05:37:24.008Z,1019.94
2017-12-05T05:38:25.423Z,1019.98
2017-12-05T05:39:26.828Z,1019.93
2017-12-05T05:40:28.294Z,1019.96
2017-12-05T05:41:29.708Z,1019.93
2017-12-05T05:42:31.120Z,1019.94
2017-12-05T05:43:32.529Z,1019.93
2017-12-05T05:44:33.935Z,1019.91
2017-12-05T05:45:35.349Z,1019.91
2017-12-05T05:46:36.781Z,1019.90
2017-12-05T05:47:38.183Z,1019.90
2017-12-05T05:48:39.592Z,1019.86
2017-12-05T05:49:40.998Z,1019.91
2017-12-05T05:50:42.413Z,1019.87
2017-12-05T05:51:43.832Z,1019.84
2017-12-05T05:52:45.245Z,1019.84
2017-12-05T05:53:46.660Z,1019.84
2017-12-05T05:54:48.073Z,1019.86
2017-12-05T05:55:49.596Z,1019.85
2017-12-05T05:56:51.004Z,1019.83
2017-12-05T05:57:52.412Z,1019.85
2017-12-05T05:58:53.821Z,1019.83
2017-12-05T05:59:55.232Z,1019.86
2017-12-05T06:00:56.643Z,1019.84
2017-12-05T06:01:58.054Z,1019.84
2017-12-05T06:02:59.455Z,1019.84
2017-12-05T06:04:00.874Z,1019.83
2017-12-05T06:05:02.283Z,1019.85
2017-12-05T06:06:03.689Z,1019.83
2017-12-05T06:07:05.115Z,1019.81
2017-12-05T06:08:06.517Z,1019.82
2017-12-05T06:09:07.926Z,1019.77
2017-12-05T06:10:09.341Z,1019.79
2017-12-05T06:11:10.758Z,1019.80
2017-12-05T06:12:12.161Z,1019.79
2017-12-05T06:13:13.572Z,1019.80
2017-12-05T06:14:14.977Z,1019.86
2017-12-05T06:15:16.391Z,1019.87
2017-12-05T06:16:17.798Z,1019.86
2017-12-05T06:17:19.211Z,1019.84
2017-12-05T06:18:20.622Z,1019.92
2017-12-05T06:19:22.034Z,1019.88
2017-12-05T06:20:23.446Z,1019.89
2017-12-05T06:21:24.855Z,1019.91
2017-12-05T06:22:26.260Z,1019.92
2017-12-05T06:23:27.673Z,1019.95
2017-12-05T06:24:29.079Z,1020.00
2017-12-05T06:25:30.492Z,1020.00
2017-12-05T06:26:31.918Z,1020.00
2017-12-05T06:27:33.327Z,1019.96
2017-12-05T06:28:34.842Z,1019.99
2017-12-05T06:29:36.258Z,1019.92
2017-12-05T06:30:37.624Z,1019.93
2017-12-05T06:31:39.044Z,1019.91
2017-12-05T06:32:40.457Z,1019.94
2017-12-05T06:33:41.869Z,1019.91
2017-12-05T06:34:43.279Z,1019.96
2017-12-05T06:35:44.685Z,1020.02
2017-12-05T06:36:46.109Z,1019.99
2017-12-05T06:37:47.522Z,1019.98
2017-12-05T06:38:48.942Z,1019.93
2017-12-05T06:39:50.363Z,1019.94
2017-12-05T06:40:51.766Z,1020.00
2017-12-05T06:41:53.184Z,1019.96
2017-12-05T06:42:54.656Z,1019.98
2017-12-05T06:43:56.173Z,1019.95
2017-12-05T06:44:57.653Z,1019.95
2017-12-05T06:45:59.056Z,1019.95
2017-12-05T06:47:00.473Z,1019.97
2017-12-05T06:48:01.899Z,1019.99
2017-12-05T06:49:03.321Z,1019.97
2017-12-05T06:50:04.796Z,1019.98
2017-12-05T06:51:06.204Z,1019.96
2017-12-05T06:52:07.610Z,1019.94
2017-12-05T06:53:09.068Z,1019.98
2017-12-05T06:54:10.488Z,1019.97
2017-12-05T06:55:11.910Z,1019.96
2017-12-05T06:56:13.329Z,1019.98
2017-12-05T06:57:14.735Z,1019.97
2017-12-05T06:58:16.110Z,1019.97
2017-12-05T06:59:17.524Z,1019.95
2017-12-05T07:00:18.929Z,1019.89
2017-12-05T07:01:20.337Z,1019.93
2017-12-05T07:02:21.748Z,1019.94
2017-12-05T07:03:23.246Z,1019.93
2017-12-05T07:04:24.641Z,1020.02
2017-12-05T07:05:26.053Z,1019.96
2017-12-05T07:06:27.460Z,1019.96
2017-12-05T07:07:28.878Z,1019.98
2017-12-05T07:08:30.304Z,1020.02
2017-12-05T07:09:31.714Z,1020.04
2017-12-05T07:10:33.123Z,1020.03
2017-12-05T07:11:34.532Z,1020.01
2017-12-05T07:12:35.940Z,1020.04
2017-12-05T07:13:37.353Z,1020.06
2017-12-05T07:14:38.806Z,1020.13
2017-12-05T07:15:40.245Z,1020.13
2017-12-05T07:16:41.893Z,1020.18
2017-12-05T07:17:43.387Z,1020.19
2017-12-05T07:18:44.776Z,1020.18
2017-12-05T07:19:46.198Z,1020.24
2017-12-05T07:20:47.600Z,1020.23
2017-12-05T07:21:49.093Z,1020.17
2017-12-05T07:22:50.516Z,1020.22
2017-12-05T07:23:51.949Z,1020.20
2017-12-05T07:24:53.353Z,1020.23
2017-12-05T07:25:54.775Z,1020.23
2017-12-05T07:26:56.186Z,1020.21
2017-12-05T07:27:58.465Z,1020.21
2017-12-05T07:28:59.883Z,1020.21
2017-12-05T07:30:01.299Z,1020.17
2017-12-05T07:31:02.710Z,1020.17
2017-12-05T07:32:04.123Z,1020.13
2017-12-05T07:33:05.532Z,1020.12
2017-12-05T07:34:06.956Z,1020.21
2017-12-05T07:35:08.372Z,1020.18
2017-12-05T07:36:09.784Z,1020.18
2017-12-05T07:37:11.191Z,1020.15
2017-12-05T07:38:12.608Z,1020.18
2017-12-05T07:39:14.021Z,1020.14
2017-12-05T07:40:15.435Z,1020.19
2017-12-05T07:41:16.840Z,1020.18
2017-12-05T07:42:18.262Z,1020.23
2017-12-05T07:43:19.684Z,1020.24
2017-12-05T07:44:21.094Z,1020.20
2017-12-05T07:45:22.503Z,1020.19
2017-12-05T07:46:23.920Z,1020.24
2017-12-05T07:47:25.347Z,1020.17
2017-12-05T07:48:26.763Z,1020.25
2017-12-05T07:49:28.178Z,1020.27
2017-12-05T07:50:29.594Z,1020.24
2017-12-05T07:51:31.015Z,1020.27
2017-12-05T07:52:32.424Z,1020.23
2017-12-05T07:53:33.953Z,1020.23
2017-12-05T07:54:35.369Z,1020.21
2017-12-05T07:55:36.779Z,1020.26
2017-12-05T07:56:38.198Z,1020.23
2017-12-05T07:57:39.670Z,1020.23
2017-12-05T07:58:41.028Z,1020.22
2017-12-05T07:59:42.440Z,1020.25
2017-12-05T08:00:43.857Z,1020.24
2017-12-05T08:01:45.268Z,1020.24
2017-12-05T08:02:46.680Z,1020.22
2017-12-05T08:03:48.092Z,1020.18
2017-12-05T08:04:49.498Z,1020.21
2017-12-05T08:05:50.911Z,1020.22
2017-12-05T08:06:52.327Z,1020.21
2017-12-05T08:07:53.742Z,1020.18
2017-12-05T08:08:55.150Z,1020.17
2017-12-05T08:09:56.568Z,1020.18
2017-12-05T08:10:57.981Z,1020.17
2017-12-05T08:11:59.399Z,1020.22
2017-12-05T08:13:00.808Z,1020.20
2017-12-05T08:14:02.230Z,1020.18
2017-12-05T08:15:03.652Z,1020.17
2017-12-05T08:16:05.059Z,1020.21
2017-12-05T08:17:06.470Z,1020.16
2017-12-05T08:18:07.883Z,1020.22
2017-12-05T08:19:09.297Z,1020.21
2017-12-05T08:20:10.705Z,1020.19
2017-12-05T08:21:12.253Z,1020.24
2017-12-05T08:22:13.661Z,1020.24
2017-12-05T08:23:15.070Z,1020.20
2017-12-05T08:24:16.473Z,1020.16
2017-12-05T08:25:17.893Z,1020.13
2017-12-05T08:26:19.307Z,1020.22
2017-12-05T08:27:20.724Z,1020.23
2017-12-05T08:28:22.185Z,1020.21
2017-12-05T08:29:23.593Z,1020.23
2017-12-05T08:30:25.011Z,1020.23
2017-12-05T08:31:26.421Z,1020.24
2017-12-05T08:32:27.840Z,1020.25
2017-12-05T08:33:29.248Z,1020.29
2017-12-05T08:34:30.657Z,1020.34
2017-12-05T08:35:32.080Z,1020.30
2017-12-05T08:36:33.494Z,1020.29
2017-12-05T08:37:34.906Z,1020.30
2017-12-05T08:38:36.317Z,1020.32
2017-12-05T08:39:37.738Z,1020.33
2017-12-05T08:40:39.153Z,1020.36
2017-12-05T08:41:40.589Z,1020.40
2017-12-05T08:42:41.981Z,1020.39
2017-12-05T08:43:43.411Z,1020.40
2017-12-05T08:44:44.825Z,1020.40
2017-12-05T08:45:46.239Z,1020.41
2017-12-05T08:46:47.658Z,1020.43
2017-12-05T08:47:49.064Z,1020.41
2017-12-05T08:48:50.482Z,1020.44
2017-12-05T08:49:51.899Z,1020.47
2017-12-05T08:50:53.313Z,1020.44
2017-12-05T08:51:54.733Z,1020.44
2017-12-05T08:52:56.140Z,1020.49
2017-12-05T08:53:57.550Z,1020.47
2017-12-05T08:54:58.959Z,1020.48
2017-12-05T08:56:00.377Z,1020.47
2017-12-05T08:57:01.795Z,1020.49
2017-12-05T08:58:03.214Z,1020.51
2017-12-05T08:59:04.622Z,1020.54
2017-12-05T09:00:06.031Z,1020.58
2017-12-05T09:01:07.445Z,1020.59
2017-12-05T09:02:08.862Z,1020.51
2017-12-05T09:03:10.288Z,1020.54
2017-12-05T09:04:11.734Z,1020.57
2017-12-05T09:05:13.155Z,1020.50
2017-12-05T09:06:14.568Z,1020.53
2017-12-05T09:07:15.984Z,1020.53
2017-12-05T09:08:17.396Z,1020.54
2017-12-05T09:09:18.810Z,1020.51
2017-12-05T09:10:20.223Z,1020.60
2017-12-05T09:11:21.636Z,1020.57
2017-12-05T09:12:23.048Z,1020.58
2017-12-05T09:13:24.463Z,1020.59
2017-12-05T09:14:25.879Z,1020.61
2017-12-05T09:15:27.300Z,1020.62
2017-12-05T09:16:28.726Z,1020.60
2017-12-05T09:17:30.177Z,1020.62
2017-12-05T09:18:31.595Z,1020.64
2017-12-05T09:19:33.007Z,1020.65
2017-12-05T09:20:34.427Z,1020.69
2017-12-05T09:21:35.837Z,1020.66
2017-12-05T09:22:37.255Z,1020.67
2017-12-05T09:23:38.668Z,1020.69
2017-12-05T09:24:40.113Z,1020.73
2017-12-05T09:25:41.517Z,1020.67
2017-12-05T09:26:42.930Z,1020.71
2017-12-05T09:27:44.339Z,1020.77
2017-12-05T09:28:45.756Z,1020.81
2017-12-05T09:29:47.165Z,1020.84
2017-12-05T09:30:48.581Z,1020.82
2017-12-05T09:31:50.063Z,1020.78
2017-12-05T09:32:51.482Z,1020.87
2017-12-05T09:33:52.892Z,1020.85
2017-12-05T09:34:54.310Z,1020.86
2017-12-05T09:35:55.725Z,1020.85
2017-12-05T09:36:57.128Z,1020.81
2017-12-05T09:37:58.542Z,1020.83
2017-12-05T09:38:59.972Z,1020.85
2017-12-05T09:40:01.382Z,1020.85
2017-12-05T09:41:02.796Z,1020.87
2017-12-05T09:42:04.214Z,1020.83
2017-12-05T09:43:05.621Z,1020.86
2017-12-05T09:44:07.038Z,1020.84
2017-12-05T09:45:08.455Z,1020.86
2017-12-05T09:46:09.862Z,1020.88
2017-12-05T09:47:11.275Z,1020.91
2017-12-05T09:48:12.691Z,1020.95
2017-12-05T09:49:14.115Z,1020.87
2017-12-05T09:50:15.523Z,1020.86
2017-12-05T09:51:16.943Z,1020.93
2017-12-05T09:52:18.360Z,1020.91
2017-12-05T09:53:19.773Z,1020.93
2017-12-05T09:54:21.187Z,1020.98
2017-12-05T09:55:22.601Z,1020.95
2017-12-05T09:56:24.006Z,1020.93
2017-12-05T09:57:25.428Z,1020.94
2017-12-05T09:58:26.838Z,1020.92
2017-12-05T09:59:28.259Z,1020.93
2017-12-05T10:00:29.672Z,1020.90
2017-12-05T10:01:31.098Z,1020.85
2017-12-05T10:02:32.505Z,1020.88
2017-12-05T10:03:33.914Z,1020.83
2017-12-05T10:04:35.336Z,1020.87
2017-12-05T10:05:36.759Z,1020.88
2017-12-05T10:06:38.179Z,1020.88
2017-12-05T10:07:39.596Z,1020.81
2017-12-05T10:08:41.012Z,1020.78
2017-12-05T10:09:42.423Z,1020.84
2017-12-05T10:10:43.850Z,1020.84
2017-12-05T10:11:45.250Z,1020.80
2017-12-05T10:12:46.670Z,1020.84
2017-12-05T10:13:48.095Z,1020.79
2017-12-05T10:14:49.507Z,1020.77
2017-12-05T10:15:50.934Z,1020.76
2017-12-05T10:16:52.343Z,1020.82
2017-12-05T10:17:53.765Z,1020.82
2017-12-05T10:18:55.196Z,1020.80
2017-12-05T10:19:56.613Z,1020.72
2017-12-05T10:20:58.036Z,1020.77
2017-12-05T10:21:59.451Z,1020.72
2017-12-05T10:23:00.863Z,1020.69
2017-12-05T10:24:02.285Z,1020.67
2017-12-05T10:25:03.692Z,1020.75
2017-12-05T10:26:05.113Z,1020.76
2017-12-05T10:27:06.536Z,1020.77
2017-12-05T10:28:07.950Z,1020.79
2017-12-05T10:29:09.373Z,1020.76
2017-12-05T10:30:10.786Z,1020.76
2017-12-05T10:31:12.198Z,1020.77
2017-12-05T10:32:13.611Z,1020.72
2017-12-05T10:33:15.031Z,1020.72
2017-12-05T10:34:16.447Z,1020.71
2017-12-05T10:35:17.855Z,1020.72
2017-12-05T10:36:19.279Z,1020.73
2017-12-05T10:37:20.698Z,1020.74
2017-12-05T10:38:22.097Z,1020.69
2017-12-05T10:39:23.528Z,1020.72
2017-12-05T10:40:24.954Z,1020.72
2017-12-05T10:41:26.365Z,1020.74
2017-12-05T10:42:27.789Z,1020.72
2017-12-05T10:43:29.204Z,1020.74
2017-12-05T10:44:30.620Z,1020.69
2017-12-05T10:45:32.030Z,1020.75
2017-12-05T10:46:33.451Z,1020.69
2017-12-05T10:47:34.862Z,1020.70
2017-12-05T10:48:36.273Z,1020.70
2017-12-05T10:49:37.685Z,1020.67
2017-12-05T10:50:39.102Z,1020.74
2017-12-05T10:51:40.514Z,1020.71
2017-12-05T10:52:41.921Z,1020.69
2017-12-05T10:53:43.349Z,1020.72
2017-12-05T10:54:44.765Z,1020.72
2017-12-05T10:55:46.191Z,1020.67
2017-12-05T10:56:47.615Z,1020.65
2017-12-05T10:57:49.038Z,1020.67
2017-12-05T10:58:50.439Z,1020.66
2017-12-05T10:59:51.853Z,1020.64
2017-12-05T11:00:53.258Z,1020.67
2017-12-05T11:01:54.677Z,1020.74
2017-12-05T11:02:56.091Z,1020.68
2017-12-05T11:03:57.500Z,1020.71
2017-12-05T11:04:58.915Z,1020.71
2017-12-05T11:06:00.448Z,1020.64
2017-12-05T11:07:01.867Z,1020.67
2017-12-05T11:08:03.282Z,1020.65
2017-12-05T11:09:04.687Z,1020.70
2017-12-05T11:10:06.106Z,1020.68
2017-12-05T11:11:07.519Z,1020.68
2017-12-05T11:12:08.938Z,1020.73
2017-12-05T11:13:10.392Z,1020.67
2017-12-05T11:14:11.807Z,1020.69
2017-12-05T11:15:13.255Z,1020.72
2017-12-05T11:16:14.710Z,1020.71
2017-12-05T11:17:16.092Z,1020.68
2017-12-05T11:18:17.500Z,1020.70
2017-12-05T11:19:18.911Z,1020.73
2017-12-05T11:20:20.330Z,1020.67
2017-12-05T11:21:21.739Z,1020.71
2017-12-05T11:22:24.134Z,1020.78
2017-12-05T11:23:26.663Z,1020.71
2017-12-05T11:24:28.054Z,1020.75
2017-12-05T11:25:29.468Z,1020.71
2017-12-05T11:26:30.891Z,1020.70
2017-12-05T11:27:32.310Z,1020.78
2017-12-05T11:28:33.722Z,1020.84
2017-12-05T11:29:35.136Z,1020.75
2017-12-05T11:30:36.555Z,1020.80
2017-12-05T11:31:37.974Z,1020.82
2017-12-05T11:32:39.387Z,1020.70
2017-12-05T11:33:40.800Z,1020.78
2017-12-05T11:34:42.211Z,1020.74
2017-12-05T11:35:43.630Z,1020.78
2017-12-05T11:36:45.047Z,1020.70
2017-12-05T11:37:46.459Z,1020.73
2017-12-05T11:38:47.875Z,1020.74
2017-12-05T11:39:49.304Z,1020.72
2017-12-05T11:40:50.724Z,1020.73
2017-12-05T11:41:52.137Z,1020.72
2017-12-05T11:42:53.545Z,1020.75
2017-12-05T11:43:54.977Z,1020.78
2017-12-05T11:44:56.395Z,1020.77
2017-12-05T11:45:57.805Z,1020.72
2017-12-05T11:46:59.225Z,1020.71
2017-12-05T11:48:00.632Z,1020.77
2017-12-05T11:49:02.053Z,1020.72
2017-12-05T11:50:03.466Z,1020.79
2017-12-05T11:51:04.881Z,1020.73
2017-12-05T11:52:06.296Z,1020.80
2017-12-05T11:53:07.713Z,1020.81
2017-12-05T11:54:09.128Z,1020.77
2017-12-05T11:55:10.543Z,1020.73
2017-12-05T11:56:11.952Z,1020.75
2017-12-05T11:57:13.370Z,1020.69
2017-12-05T11:58:14.792Z,1020.70
2017-12-05T11:59:16.199Z,1020.70
2017-12-05T12:00:17.612Z,1020.73
2017-12-05T12:01:19.027Z,1020.75
2017-12-05T12:02:20.442Z,1020.69
2017-12-05T12:03:21.859Z,1020.63
2017-12-05T12:04:23.282Z,1020.66
2017-12-05T12:05:24.714Z,1020.71
2017-12-05T12:06:26.123Z,1020.80
2017-12-05T12:07:27.552Z,1020.71
2017-12-05T12:08:28.972Z,1020.63
2017-12-05T12:09:30.388Z,1020.68
2017-12-05T12:10:31.805Z,1020.67
2017-12-05T12:11:33.233Z,1020.68
2017-12-05T12:12:34.650Z,1020.74
2017-12-05T12:13:36.064Z,1020.75
2017-12-05T12:14:37.480Z,1020.83
2017-12-05T12:15:38.914Z,1020.81
2017-12-05T12:16:40.328Z,1020.80
2017-12-05T12:17:41.741Z,1020.77
2017-12-05T12:18:43.151Z,1020.76
2017-12-05T12:19:44.570Z,1020.73
2017-12-05T12:20:45.984Z,1020.77
2017-12-05T12:21:47.401Z,1020.76
2017-12-05T12:22:48.811Z,1020.77